sensor_id;sensor_type;location;lat;lon;timestamp;temperature;humidity
57030;DHT22;42920;45.306;20.448;2023-02-28T00:00:09;103.20;2227.20
57030;DHT22;42920;45.306;20.448;2023-02-28T00:02:40;103.20;2227.20
57030;DHT22;42920;45.306;20.448;2023-02-28T00:05:07;103.10;2227.20
57030;DHT22;42920;45.306;20.448;2023-02-28T00:07:33;103.30;2227.20
57030;DHT22;42920;45.306;20.448;2023-02-28T00:09:59;103.20;2227.20
57030;DHT22;42920;45.306;20.448;2023-02-28T00:12:25;103.30;2227.20
57030;DHT22;42920;45.306;20.448;2023-02-28T00:14:51;103.20;2227.20
57030;DHT22;42920;45.306;20.448;2023-02-28T00:17:17;103.30;2227.20
57030;DHT22;42920;45.306;20.448;2023-02-28T00:19:50;103.20;2227.20
57030;DHT22;42920;45.306;20.448;2023-02-28T00:22:18;103.30;2227.20
57030;DHT22;42920;45.306;20.448;2023-02-28T00:24:44;103.20;2227.20
57030;DHT22;42920;45.306;20.448;2023-02-28T00:27:10;103.10;2227.20
57030;DHT22;42920;45.306;20.448;2023-02-28T00:29:36;103.00;2227.20
57030;DHT22;42920;45.306;20.448;2023-02-28T00:32:03;102.80;2227.20
57030;DHT22;42920;45.306;20.448;2023-02-28T00:34:29;103.10;2227.20
57030;DHT22;42920;45.306;20.448;2023-02-28T00:36:54;103.10;2227.20
57030;DHT22;42920;45.306;20.448;2023-02-28T00:39:20;103.20;2227.20
57030;DHT22;42920;45.306;20.448;2023-02-28T00:41:46;103.20;2227.20
57030;DHT22;42920;45.306;20.448;2023-02-28T00:44:12;103.00;2227.20
57030;DHT22;42920;45.306;20.448;2023-02-28T00:46:37;103.00;2227.20
57030;DHT22;42920;45.306;20.448;2023-02-28T00:49:03;102.90;2227.20
57030;DHT22;42920;45.306;20.448;2023-02-28T00:51:29;103.00;2227.20
57030;DHT22;42920;45.306;20.448;2023-02-28T00:53:54;103.00;2227.20
57030;DHT22;42920;45.306;20.448;2023-02-28T00:56:20;103.00;2227.20
57030;DHT22;42920;45.306;20.448;2023-02-28T00:58:46;103.00;2227.20
57030;DHT22;42920;45.306;20.448;2023-02-28T01:01:11;103.00;2227.20
57030;DHT22;42920;45.306;20.448;2023-02-28T01:03:37;103.00;2227.20
57030;DHT22;42920;45.306;20.448;2023-02-28T01:06:04;102.90;2227.20
57030;DHT22;42920;45.306;20.448;2023-02-28T01:08:29;102.90;2227.20
57030;DHT22;42920;45.306;20.448;2023-02-28T01:10:55;102.90;2227.20
57030;DHT22;42920;45.306;20.448;2023-02-28T01:13:21;102.90;2227.20
57030;DHT22;42920;45.306;20.448;2023-02-28T01:15:54;102.90;2227.20
57030;DHT22;42920;45.306;20.448;2023-02-28T01:18:21;102.80;2227.20
57030;DHT22;42920;45.306;20.448;2023-02-28T01:20:47;102.80;2227.20
57030;DHT22;42920;45.306;20.448;2023-02-28T01:23:13;102.80;2227.20
57030;DHT22;42920;45.306;20.448;2023-02-28T01:25:39;102.80;2227.20
57030;DHT22;42920;45.306;20.448;2023-02-28T01:28:05;102.70;2227.20
57030;DHT22;42920;45.306;20.448;2023-02-28T01:30:31;102.60;2227.20
57030;DHT22;42920;45.306;20.448;2023-02-28T01:32:57;102.70;2227.20
57030;DHT22;42920;45.306;20.448;2023-02-28T01:35:23;102.70;2227.20
57030;DHT22;42920;45.306;20.448;2023-02-28T01:37:48;102.60;2227.20
57030;DHT22;42920;45.306;20.448;2023-02-28T01:40:14;102.70;2227.20
57030;DHT22;42920;45.306;20.448;2023-02-28T01:42:40;102.70;2227.20
57030;DHT22;42920;45.306;20.448;2023-02-28T01:45:27;102.70;2227.20
57030;DHT22;42920;45.306;20.448;2023-02-28T01:48:05;102.70;2227.20
57030;DHT22;42920;45.306;20.448;2023-02-28T01:50:36;102.70;2227.20
57030;DHT22;42920;45.306;20.448;2023-02-28T01:53:06;102.70;2227.20
57030;DHT22;42920;45.306;20.448;2023-02-28T01:55:33;102.70;2227.20
57030;DHT22;42920;45.306;20.448;2023-02-28T01:58:02;102.70;2227.20
57030;DHT22;42920;45.306;20.448;2023-02-28T02:00:29;102.60;2227.20
57030;DHT22;42920;45.306;20.448;2023-02-28T02:02:58;102.80;2227.20
57030;DHT22;42920;45.306;20.448;2023-02-28T02:05:28;102.60;2227.20
57030;DHT22;42920;45.306;20.448;2023-02-28T02:08:01;102.70;2227.20
57030;DHT22;42920;45.306;20.448;2023-02-28T02:10:46;102.70;2227.20
57030;DHT22;42920;45.306;20.448;2023-02-28T02:13:56;102.80;2227.20
57030;DHT22;42920;45.306;20.448;2023-02-28T02:19:32;102.80;2227.20
57030;DHT22;42920;45.306;20.448;2023-02-28T02:27:12;102.80;2227.20
57030;DHT22;42920;45.306;20.448;2023-02-28T02:33:14;102.70;2227.20
57030;DHT22;42920;45.306;20.448;2023-02-28T02:41:23;102.80;2227.20
57030;DHT22;42920;45.306;20.448;2023-02-28T02:47:01;102.80;2227.20
57030;DHT22;42920;45.306;20.448;2023-02-28T02:49:31;102.80;2227.20
57030;DHT22;42920;45.306;20.448;2023-02-28T02:52:04;102.80;2227.20
57030;DHT22;42920;45.306;20.448;2023-02-28T02:54:36;102.80;2227.20
57030;DHT22;42920;45.306;20.448;2023-02-28T02:57:08;102.90;2227.20
57030;DHT22;42920;45.306;20.448;2023-02-28T02:59:37;102.80;2227.20
57030;DHT22;42920;45.306;20.448;2023-02-28T03:02:06;102.80;2227.20
57030;DHT22;42920;45.306;20.448;2023-02-28T03:04:45;102.80;2227.20
57030;DHT22;42920;45.306;20.448;2023-02-28T03:07:11;102.80;2227.20
57030;DHT22;42920;45.306;20.448;2023-02-28T03:09:37;102.90;2227.20
57030;DHT22;42920;45.306;20.448;2023-02-28T03:12:03;102.80;2227.20
57030;DHT22;42920;45.306;20.448;2023-02-28T03:25:47;103.00;2227.20
57030;DHT22;42920;45.306;20.448;2023-02-28T03:28:43;103.00;2227.20
57030;DHT22;42920;45.306;20.448;2023-02-28T03:33:49;103.00;2227.20
57030;DHT22;42920;45.306;20.448;2023-02-28T03:36:28;102.80;2227.20
57030;DHT22;42920;45.306;20.448;2023-02-28T03:39:02;102.90;2227.20
57030;DHT22;42920;45.306;20.448;2023-02-28T03:41:35;102.90;2227.20
57030;DHT22;42920;45.306;20.448;2023-02-28T03:44:07;103.00;2227.20
57030;DHT22;42920;45.306;20.448;2023-02-28T03:46:38;103.00;2227.20
57030;DHT22;42920;45.306;20.448;2023-02-28T03:49:31;103.00;2227.20
57030;DHT22;42920;45.306;20.448;2023-02-28T03:52:01;103.00;2227.20
57030;DHT22;42920;45.306;20.448;2023-02-28T03:54:37;103.10;2227.20
57030;DHT22;42920;45.306;20.448;2023-02-28T04:00:13;103.10;2227.20
57030;DHT22;42920;45.306;20.448;2023-02-28T04:02:40;103.10;2227.20
57030;DHT22;42920;45.306;20.448;2023-02-28T04:05:07;103.00;2227.20
57030;DHT22;42920;45.306;20.448;2023-02-28T04:07:33;103.00;2227.20
57030;DHT22;42920;45.306;20.448;2023-02-28T04:09:59;102.90;2227.20
57030;DHT22;42920;45.306;20.448;2023-02-28T04:12:25;103.00;2227.20
57030;DHT22;42920;45.306;20.448;2023-02-28T04:14:51;102.90;2227.20
57030;DHT22;42920;45.306;20.448;2023-02-28T04:17:16;102.90;2227.20
57030;DHT22;42920;45.306;20.448;2023-02-28T04:19:42;102.90;2227.20
57030;DHT22;42920;45.306;20.448;2023-02-28T04:22:08;102.90;2227.20
57030;DHT22;42920;45.306;20.448;2023-02-28T04:24:35;102.90;2227.20
57030;DHT22;42920;45.306;20.448;2023-02-28T04:27:01;102.90;2227.20
57030;DHT22;42920;45.306;20.448;2023-02-28T04:29:31;103.00;2227.20
57030;DHT22;42920;45.306;20.448;2023-02-28T04:32:01;102.90;2227.20
57030;DHT22;42920;45.306;20.448;2023-02-28T04:34:29;102.80;2227.20
57030;DHT22;42920;45.306;20.448;2023-02-28T04:36:55;102.80;2227.20
57030;DHT22;42920;45.306;20.448;2023-02-28T04:39:24;102.80;2227.20
57030;DHT22;42920;45.306;20.448;2023-02-28T04:41:50;102.90;2227.20
57030;DHT22;42920;45.306;20.448;2023-02-28T04:44:16;102.80;2227.20
57030;DHT22;42920;45.306;20.448;2023-02-28T04:46:42;102.90;2227.20
57030;DHT22;42920;45.306;20.448;2023-02-28T04:49:11;102.80;2227.20
57030;DHT22;42920;45.306;20.448;2023-02-28T04:51:37;102.80;2227.20
57030;DHT22;42920;45.306;20.448;2023-02-28T04:54:02;102.80;2227.20
57030;DHT22;42920;45.306;20.448;2023-02-28T04:56:28;102.70;2227.20
57030;DHT22;42920;45.306;20.448;2023-02-28T04:58:54;102.80;2227.20
57030;DHT22;42920;45.306;20.448;2023-02-28T05:01:28;102.70;2227.20
57030;DHT22;42920;45.306;20.448;2023-02-28T05:03:57;102.70;2227.20
57030;DHT22;42920;45.306;20.448;2023-02-28T05:06:26;102.80;2227.20
57030;DHT22;42920;45.306;20.448;2023-02-28T05:08:52;102.80;2227.20
57030;DHT22;42920;45.306;20.448;2023-02-28T05:13:44;102.80;2227.20
57030;DHT22;42920;45.306;20.448;2023-02-28T05:16:10;102.80;2227.20
57030;DHT22;42920;45.306;20.448;2023-02-28T05:18:36;102.80;2227.20
57030;DHT22;42920;45.306;20.448;2023-02-28T05:21:01;102.50;2227.20
57030;DHT22;42920;45.306;20.448;2023-02-28T05:23:30;102.80;2227.20
57030;DHT22;42920;45.306;20.448;2023-02-28T05:25:56;102.70;2227.20
57030;DHT22;42920;45.306;20.448;2023-02-28T05:28:21;102.70;2227.20
57030;DHT22;42920;45.306;20.448;2023-02-28T05:30:47;102.80;2227.20
57030;DHT22;42920;45.306;20.448;2023-02-28T05:33:13;102.70;2227.20
57030;DHT22;42920;45.306;20.448;2023-02-28T05:35:40;102.80;2227.20
57030;DHT22;42920;45.306;20.448;2023-02-28T05:38:07;102.80;2227.20
57030;DHT22;42920;45.306;20.448;2023-02-28T05:40:33;102.80;2227.20
57030;DHT22;42920;45.306;20.448;2023-02-28T05:42:59;102.70;2227.20
57030;DHT22;42920;45.306;20.448;2023-02-28T05:45:24;102.80;2227.20
57030;DHT22;42920;45.306;20.448;2023-02-28T05:47:53;102.80;2227.20
57030;DHT22;42920;45.306;20.448;2023-02-28T05:50:19;102.70;2227.20
57030;DHT22;42920;45.306;20.448;2023-02-28T05:52:48;102.70;2227.20
57030;DHT22;42920;45.306;20.448;2023-02-28T05:55:14;102.90;2227.20
57030;DHT22;42920;45.306;20.448;2023-02-28T05:57:40;102.80;2227.20
57030;DHT22;42920;45.306;20.448;2023-02-28T06:00:06;102.90;2227.20
57030;DHT22;42920;45.306;20.448;2023-02-28T06:02:32;102.80;2227.20
57030;DHT22;42920;45.306;20.448;2023-02-28T06:04:57;102.80;2227.20
57030;DHT22;42920;45.306;20.448;2023-02-28T06:07:23;102.80;2227.20
57030;DHT22;42920;45.306;20.448;2023-02-28T06:09:48;102.80;2227.20
57030;DHT22;42920;45.306;20.448;2023-02-28T06:12:14;102.70;2227.20
57030;DHT22;42920;45.306;20.448;2023-02-28T06:14:40;102.80;2227.20
57030;DHT22;42920;45.306;20.448;2023-02-28T06:17:06;102.80;2227.20
57030;DHT22;42920;45.306;20.448;2023-02-28T06:19:32;102.80;2227.20
57030;DHT22;42920;45.306;20.448;2023-02-28T06:21:57;102.80;2227.20
57030;DHT22;42920;45.306;20.448;2023-02-28T06:24:25;102.80;2227.20
57030;DHT22;42920;45.306;20.448;2023-02-28T06:26:53;102.80;2227.20
57030;DHT22;42920;45.306;20.448;2023-02-28T06:29:19;102.80;2227.20
57030;DHT22;42920;45.306;20.448;2023-02-28T06:31:45;102.70;2227.20
57030;DHT22;42920;45.306;20.448;2023-02-28T06:34:11;102.70;2227.20
57030;DHT22;42920;45.306;20.448;2023-02-28T06:36:38;102.70;2227.20
57030;DHT22;42920;45.306;20.448;2023-02-28T06:39:05;102.70;2227.20
57030;DHT22;42920;45.306;20.448;2023-02-28T06:41:31;102.60;2227.20
57030;DHT22;42920;45.306;20.448;2023-02-28T06:43:57;102.70;2227.20
57030;DHT22;42920;45.306;20.448;2023-02-28T06:46:22;102.70;2227.20
57030;DHT22;42920;45.306;20.448;2023-02-28T06:48:48;102.60;2227.20
57030;DHT22;42920;45.306;20.448;2023-02-28T06:51:17;102.70;2227.20
57030;DHT22;42920;45.306;20.448;2023-02-28T06:53:44;102.70;2227.20
57030;DHT22;42920;45.306;20.448;2023-02-28T06:56:10;102.70;2227.20
57030;DHT22;42920;45.306;20.448;2023-02-28T06:58:36;102.70;2227.20
57030;DHT22;42920;45.306;20.448;2023-02-28T07:01:03;102.60;2227.20
57030;DHT22;42920;45.306;20.448;2023-02-28T07:03:29;102.70;2227.20
57030;DHT22;42920;45.306;20.448;2023-02-28T07:05:55;102.70;2227.20
57030;DHT22;42920;45.306;20.448;2023-02-28T07:08:22;102.60;2227.20
57030;DHT22;42920;45.306;20.448;2023-02-28T07:10:52;102.50;2227.20
57030;DHT22;42920;45.306;20.448;2023-02-28T07:13:18;102.60;2227.20
57030;DHT22;42920;45.306;20.448;2023-02-28T07:15:44;102.70;2227.20
57030;DHT22;42920;45.306;20.448;2023-02-28T07:18:09;102.60;2227.20
57030;DHT22;42920;45.306;20.448;2023-02-28T07:20:35;102.60;2227.20
57030;DHT22;42920;45.306;20.448;2023-02-28T07:23:01;102.70;2227.20
57030;DHT22;42920;45.306;20.448;2023-02-28T07:25:27;102.70;2227.20
57030;DHT22;42920;45.306;20.448;2023-02-28T07:27:54;102.60;2227.20
57030;DHT22;42920;45.306;20.448;2023-02-28T07:30:20;102.60;2227.20
57030;DHT22;42920;45.306;20.448;2023-02-28T07:32:45;102.60;2227.20
57030;DHT22;42920;45.306;20.448;2023-02-28T07:35:11;102.80;2227.20
57030;DHT22;42920;45.306;20.448;2023-02-28T07:37:37;102.80;2227.20
57030;DHT22;42920;45.306;20.448;2023-02-28T07:40:08;102.90;2227.20
57030;DHT22;42920;45.306;20.448;2023-02-28T07:42:35;102.80;2227.20
57030;DHT22;42920;45.306;20.448;2023-02-28T07:45:01;102.90;2227.20
57030;DHT22;42920;45.306;20.448;2023-02-28T07:47:28;102.70;2227.20
57030;DHT22;42920;45.306;20.448;2023-02-28T07:49:54;102.90;2227.20
57030;DHT22;42920;45.306;20.448;2023-02-28T07:52:20;103.00;2227.20
57030;DHT22;42920;45.306;20.448;2023-02-28T07:54:45;103.00;2227.20
57030;DHT22;42920;45.306;20.448;2023-02-28T07:57:11;103.00;2227.20
57030;DHT22;42920;45.306;20.448;2023-02-28T07:59:36;103.00;2227.20
57030;DHT22;42920;45.306;20.448;2023-02-28T08:02:02;103.00;2227.20
57030;DHT22;42920;45.306;20.448;2023-02-28T08:04:28;103.10;2227.20
57030;DHT22;42920;45.306;20.448;2023-02-28T08:06:56;103.00;2227.20
57030;DHT22;42920;45.306;20.448;2023-02-28T08:09:22;103.00;2227.20
57030;DHT22;42920;45.306;20.448;2023-02-28T08:11:48;103.20;2227.20
57030;DHT22;42920;45.306;20.448;2023-02-28T08:14:13;103.10;2227.20
57030;DHT22;42920;45.306;20.448;2023-02-28T08:16:39;103.20;2227.20
57030;DHT22;42920;45.306;20.448;2023-02-28T08:19:05;103.10;2227.20
57030;DHT22;42920;45.306;20.448;2023-02-28T08:21:30;103.20;2227.20
57030;DHT22;42920;45.306;20.448;2023-02-28T08:23:56;103.20;2227.20
57030;DHT22;42920;45.306;20.448;2023-02-28T08:26:22;103.20;2227.20
57030;DHT22;42920;45.306;20.448;2023-02-28T08:28:48;103.30;2227.20
57030;DHT22;42920;45.306;20.448;2023-02-28T08:31:14;103.30;2227.20
57030;DHT22;42920;45.306;20.448;2023-02-28T08:33:41;103.30;2227.20
57030;DHT22;42920;45.306;20.448;2023-02-28T08:36:08;103.30;2227.20
57030;DHT22;42920;45.306;20.448;2023-02-28T08:38:35;103.30;2227.20
57030;DHT22;42920;45.306;20.448;2023-02-28T08:41:04;103.20;2227.20
57030;DHT22;42920;45.306;20.448;2023-02-28T08:43:33;103.30;2227.20
57030;DHT22;42920;45.306;20.448;2023-02-28T08:45:59;128.00;2252.80
57030;DHT22;42920;45.306;20.448;2023-02-28T08:48:25;128.00;2252.80
57030;DHT22;42920;45.306;20.448;2023-02-28T08:51:07;103.30;2227.20
57030;DHT22;42920;45.306;20.448;2023-02-28T08:53:37;103.30;2227.20
57030;DHT22;42920;45.306;20.448;2023-02-28T08:56:10;103.30;2227.20
57030;DHT22;42920;45.306;20.448;2023-02-28T08:58:36;103.30;2227.20
57030;DHT22;42920;45.306;20.448;2023-02-28T09:01:14;128.00;2252.80
57030;DHT22;42920;45.306;20.448;2023-02-28T09:03:41;128.10;2252.80
57030;DHT22;42920;45.306;20.448;2023-02-28T09:06:08;128.20;2252.80
57030;DHT22;42920;45.306;20.448;2023-02-28T09:08:35;128.10;2252.80
57030;DHT22;42920;45.306;20.448;2023-02-28T09:11:00;128.10;2252.80
57030;DHT22;42920;45.306;20.448;2023-02-28T09:13:27;128.10;2252.80
57030;DHT22;42920;45.306;20.448;2023-02-28T09:15:53;128.10;2252.80
57030;DHT22;42920;45.306;20.448;2023-02-28T09:18:19;128.00;2252.80
57030;DHT22;42920;45.306;20.448;2023-02-28T09:20:44;128.10;2252.80
57030;DHT22;42920;45.306;20.448;2023-02-28T09:23:11;128.20;2252.80
57030;DHT22;42920;45.306;20.448;2023-02-28T09:25:37;128.10;2252.80
57030;DHT22;42920;45.306;20.448;2023-02-28T09:28:03;128.20;2252.80
57030;DHT22;42920;45.306;20.448;2023-02-28T09:30:29;128.20;2252.80
57030;DHT22;42920;45.306;20.448;2023-02-28T09:32:55;128.30;2252.80
57030;DHT22;42920;45.306;20.448;2023-02-28T09:35:21;128.30;2252.80
57030;DHT22;42920;45.306;20.448;2023-02-28T09:37:48;128.30;2252.80
57030;DHT22;42920;45.306;20.448;2023-02-28T09:40:15;128.40;2252.80
57030;DHT22;42920;45.306;20.448;2023-02-28T09:42:46;128.30;2252.80
57030;DHT22;42920;45.306;20.448;2023-02-28T09:45:36;128.40;2252.80
57030;DHT22;42920;45.306;20.448;2023-02-28T09:48:19;128.30;2252.80
57030;DHT22;42920;45.306;20.448;2023-02-28T09:50:50;128.40;2252.80
57030;DHT22;42920;45.306;20.448;2023-02-28T09:53:25;128.40;2252.80
57030;DHT22;42920;45.306;20.448;2023-02-28T09:55:57;128.50;2252.80
57030;DHT22;42920;45.306;20.448;2023-02-28T10:03:40;128.70;2252.80
57030;DHT22;42920;45.306;20.448;2023-02-28T10:06:11;128.70;2252.80
57030;DHT22;42920;45.306;20.448;2023-02-28T10:11:25;128.80;2252.80
57030;DHT22;42920;45.306;20.448;2023-02-28T10:13:53;128.90;2252.80
57030;DHT22;42920;45.306;20.448;2023-02-28T10:21:31;128.80;2252.80
57030;DHT22;42920;45.306;20.448;2023-02-28T10:26:44;128.90;2252.80
57030;DHT22;42920;45.306;20.448;2023-02-28T10:29:11;153.60;2252.80
57030;DHT22;42920;45.306;20.448;2023-02-28T10:31:36;128.90;2252.80
57030;DHT22;42920;45.306;20.448;2023-02-28T10:34:03;128.90;2252.80
57030;DHT22;42920;45.306;20.448;2023-02-28T10:36:31;128.90;2252.80
57030;DHT22;42920;45.306;20.448;2023-02-28T10:38:57;128.90;2252.80
57030;DHT22;42920;45.306;20.448;2023-02-28T10:41:30;153.60;2252.80
57030;DHT22;42920;45.306;20.448;2023-02-28T10:44:20;153.60;2252.80
57030;DHT22;42920;45.306;20.448;2023-02-28T10:46:46;153.60;2252.80
57030;DHT22;42920;45.306;20.448;2023-02-28T10:49:13;153.60;2252.80
57030;DHT22;42920;45.306;20.448;2023-02-28T10:51:41;153.70;2252.80
57030;DHT22;42920;45.306;20.448;2023-02-28T10:54:34;153.60;2252.80
57030;DHT22;42920;45.306;20.448;2023-02-28T10:59:43;153.70;2252.80
57030;DHT22;42920;45.306;20.448;2023-02-28T11:02:39;153.60;2252.80
57030;DHT22;42920;45.306;20.448;2023-02-28T11:05:30;153.70;2252.80
57030;DHT22;42920;45.306;20.448;2023-02-28T11:08:15;153.80;2252.80
57030;DHT22;42920;45.306;20.448;2023-02-28T11:10:46;153.80;2252.80
57030;DHT22;42920;45.306;20.448;2023-02-28T11:13:18;153.90;2252.80
57030;DHT22;42920;45.306;20.448;2023-02-28T11:15:54;153.90;2252.80
57030;DHT22;42920;45.306;20.448;2023-02-28T11:20:57;153.90;2252.80
57030;DHT22;42920;45.306;20.448;2023-02-28T11:23:26;154.00;2252.80
57030;DHT22;42920;45.306;20.448;2023-02-28T11:25:55;153.80;2252.80
57030;DHT22;42920;45.306;20.448;2023-02-28T11:31:09;154.00;2252.80
57030;DHT22;42920;45.306;20.448;2023-02-28T11:33:45;154.00;2252.80
57030;DHT22;42920;45.306;20.448;2023-02-28T11:38:42;154.00;2252.80
57030;DHT22;42920;45.306;20.448;2023-02-28T11:41:21;153.90;2252.80
57030;DHT22;42920;45.306;20.448;2023-02-28T11:46:30;154.10;2252.80
57030;DHT22;42920;45.306;20.448;2023-02-28T11:55:28;154.20;2252.80
57030;DHT22;42920;45.306;20.448;2023-02-28T11:58:25;154.20;2252.80
57030;DHT22;42920;45.306;20.448;2023-02-28T12:06:48;154.10;2252.80
57030;DHT22;42920;45.306;20.448;2023-02-28T12:15:17;154.20;2252.80
57030;DHT22;42920;45.306;20.448;2023-02-28T12:17:51;154.00;2252.80
57030;DHT22;42920;45.306;20.448;2023-02-28T12:20:42;154.00;2252.80
57030;DHT22;42920;45.306;20.448;2023-02-28T12:29:00;154.20;2252.80
57030;DHT22;42920;45.306;20.448;2023-02-28T12:31:30;154.00;2252.80
57030;DHT22;42920;45.306;20.448;2023-02-28T12:34:01;153.90;2252.80
57030;DHT22;42920;45.306;20.448;2023-02-28T12:36:28;153.90;2252.80
57030;DHT22;42920;45.306;20.448;2023-02-28T12:39:01;154.00;2252.80
57030;DHT22;42920;45.306;20.448;2023-02-28T12:44:13;154.00;2252.80
57030;DHT22;42920;45.306;20.448;2023-02-28T12:47:02;154.00;2252.80
57030;DHT22;42920;45.306;20.448;2023-02-28T12:49:37;153.90;2252.80
57030;DHT22;42920;45.306;20.448;2023-02-28T12:52:04;153.90;2252.80
57030;DHT22;42920;45.306;20.448;2023-02-28T12:54:43;154.00;2252.80
57030;DHT22;42920;45.306;20.448;2023-02-28T12:57:24;154.10;2252.80
57030;DHT22;42920;45.306;20.448;2023-02-28T13:00:15;154.10;2252.80
57030;DHT22;42920;45.306;20.448;2023-02-28T13:08:04;154.20;2252.80
57030;DHT22;42920;45.306;20.448;2023-02-28T13:10:43;154.10;2252.80
57030;DHT22;42920;45.306;20.448;2023-02-28T13:13:19;154.20;2252.80
57030;DHT22;42920;45.306;20.448;2023-02-28T13:18:42;154.10;2252.80
57030;DHT22;42920;45.306;20.448;2023-02-28T13:21:28;154.20;2252.80
57030;DHT22;42920;45.306;20.448;2023-02-28T13:24:04;154.20;2252.80
57030;DHT22;42920;45.306;20.448;2023-02-28T13:29:04;154.30;2252.80
57030;DHT22;42920;45.306;20.448;2023-02-28T13:39:57;154.20;2252.80
57030;DHT22;42920;45.306;20.448;2023-02-28T13:50:38;154.30;2252.80
57030;DHT22;42920;45.306;20.448;2023-02-28T14:06:33;154.30;2252.80
57030;DHT22;42920;45.306;20.448;2023-02-28T14:09:16;154.30;2252.80
57030;DHT22;42920;45.306;20.448;2023-02-28T14:11:44;154.30;2252.80
57030;DHT22;42920;45.306;20.448;2023-02-28T14:17:01;154.40;2252.80
57030;DHT22;42920;45.306;20.448;2023-02-28T14:19:30;154.30;2252.80
57030;DHT22;42920;45.306;20.448;2023-02-28T14:24:59;154.20;2252.80
57030;DHT22;42920;45.306;20.448;2023-02-28T14:30:16;154.40;2252.80
57030;DHT22;42920;45.306;20.448;2023-02-28T14:33:11;154.40;2252.80
57030;DHT22;42920;45.306;20.448;2023-02-28T14:38:31;154.50;2252.80
57030;DHT22;42920;45.306;20.448;2023-02-28T14:41:00;154.50;2252.80
57030;DHT22;42920;45.306;20.448;2023-02-28T14:43:27;154.40;2252.80
57030;DHT22;42920;45.306;20.448;2023-02-28T14:46:02;154.40;2252.80
57030;DHT22;42920;45.306;20.448;2023-02-28T14:48:29;154.50;2252.80
57030;DHT22;42920;45.306;20.448;2023-02-28T14:50:57;154.40;2252.80
57030;DHT22;42920;45.306;20.448;2023-02-28T14:53:28;154.40;2252.80
57030;DHT22;42920;45.306;20.448;2023-02-28T14:55:54;154.40;2252.80
57030;DHT22;42920;45.306;20.448;2023-02-28T15:00:51;154.50;2252.80
57030;DHT22;42920;45.306;20.448;2023-02-28T15:06:03;154.40;2252.80
57030;DHT22;42920;45.306;20.448;2023-02-28T15:08:29;154.50;2252.80
57030;DHT22;42920;45.306;20.448;2023-02-28T15:11:03;154.50;2252.80
57030;DHT22;42920;45.306;20.448;2023-02-28T15:16:19;154.50;2252.80
57030;DHT22;42920;45.306;20.448;2023-02-28T15:18:55;154.50;2252.80
57030;DHT22;42920;45.306;20.448;2023-02-28T15:21:30;154.50;2252.80
57030;DHT22;42920;45.306;20.448;2023-02-28T15:24:21;154.40;2252.80
57030;DHT22;42920;45.306;20.448;2023-02-28T15:26:58;154.50;2252.80
57030;DHT22;42920;45.306;20.448;2023-02-28T15:29:27;154.50;2252.80
57030;DHT22;42920;45.306;20.448;2023-02-28T15:32:00;154.50;2252.80
57030;DHT22;42920;45.306;20.448;2023-02-28T15:34:40;179.20;2252.80
57030;DHT22;42920;45.306;20.448;2023-02-28T15:40:10;179.20;2252.80
57030;DHT22;42920;45.306;20.448;2023-02-28T15:42:36;154.50;2252.80
57030;DHT22;42920;45.306;20.448;2023-02-28T15:45:01;179.20;2252.80
57030;DHT22;42920;45.306;20.448;2023-02-28T15:47:29;179.20;2252.80
57030;DHT22;42920;45.306;20.448;2023-02-28T15:52:40;179.20;2252.80
57030;DHT22;42920;45.306;20.448;2023-02-28T15:55:11;179.20;2252.80
57030;DHT22;42920;45.306;20.448;2023-02-28T15:57:39;179.20;2252.80
57030;DHT22;42920;45.306;20.448;2023-02-28T16:00:13;179.30;2252.80
57030;DHT22;42920;45.306;20.448;2023-02-28T16:02:39;179.20;2252.80
57030;DHT22;42920;45.306;20.448;2023-02-28T16:07:36;179.20;2252.80
57030;DHT22;42920;45.306;20.448;2023-02-28T16:10:03;179.20;2252.80
57030;DHT22;42920;45.306;20.448;2023-02-28T16:12:30;179.20;2252.80
57030;DHT22;42920;45.306;20.448;2023-02-28T16:14:59;179.30;2252.80
57030;DHT22;42920;45.306;20.448;2023-02-28T16:17:30;179.30;2252.80
57030;DHT22;42920;45.306;20.448;2023-02-28T16:19:56;179.20;2252.80
57030;DHT22;42920;45.306;20.448;2023-02-28T16:22:22;179.20;2252.80
57030;DHT22;42920;45.306;20.448;2023-02-28T16:24:47;179.20;2252.80
57030;DHT22;42920;45.306;20.448;2023-02-28T16:27:30;179.20;2252.80
57030;DHT22;42920;45.306;20.448;2023-02-28T16:29:56;154.50;2252.80
57030;DHT22;42920;45.306;20.448;2023-02-28T16:32:22;154.50;2252.80
57030;DHT22;42920;45.306;20.448;2023-02-28T16:34:48;179.20;2252.80
57030;DHT22;42920;45.306;20.448;2023-02-28T16:37:14;154.50;2252.80
57030;DHT22;42920;45.306;20.448;2023-02-28T16:39:41;154.50;2252.80
57030;DHT22;42920;45.306;20.448;2023-02-28T16:42:23;154.50;2252.80
57030;DHT22;42920;45.306;20.448;2023-02-28T16:44:51;179.20;2252.80
57030;DHT22;42920;45.306;20.448;2023-02-28T16:47:17;179.20;2252.80
57030;DHT22;42920;45.306;20.448;2023-02-28T16:49:43;179.20;2252.80
57030;DHT22;42920;45.306;20.448;2023-02-28T16:52:09;179.20;2252.80
57030;DHT22;42920;45.306;20.448;2023-02-28T16:54:35;154.50;2252.80
57030;DHT22;42920;45.306;20.448;2023-02-28T16:57:01;179.20;2252.80
57030;DHT22;42920;45.306;20.448;2023-02-28T16:59:27;179.20;2252.80
57030;DHT22;42920;45.306;20.448;2023-02-28T17:01:55;179.20;2252.80
57030;DHT22;42920;45.306;20.448;2023-02-28T17:04:26;179.20;2252.80
57030;DHT22;42920;45.306;20.448;2023-02-28T17:06:52;179.20;2252.80
57030;DHT22;42920;45.306;20.448;2023-02-28T17:09:18;179.20;2252.80
57030;DHT22;42920;45.306;20.448;2023-02-28T17:11:45;179.30;2252.80
57030;DHT22;42920;45.306;20.448;2023-02-28T17:14:12;179.40;2252.80
57030;DHT22;42920;45.306;20.448;2023-02-28T17:16:39;179.40;2252.80
57030;DHT22;42920;45.306;20.448;2023-02-28T17:19:07;179.40;2252.80
57030;DHT22;42920;45.306;20.448;2023-02-28T17:21:36;179.40;2252.80
57030;DHT22;42920;45.306;20.448;2023-02-28T17:24:03;154.50;2252.80
57030;DHT22;42920;45.306;20.448;2023-02-28T17:26:29;179.40;2252.80
57030;DHT22;42920;45.306;20.448;2023-02-28T17:28:55;179.40;2252.80
57030;DHT22;42920;45.306;20.448;2023-02-28T17:31:25;179.40;2252.80